createdAt,value
2022-11-27T00:00:28.362Z,101159.31
2022-11-27T00:04:31.559Z,101151.47
2022-11-27T00:08:36.233Z,101159.31
2022-11-27T00:12:39.383Z,101154.91
2022-11-27T00:16:42.775Z,101158.44
2022-11-27T00:20:45.731Z,101149.63
2022-11-27T00:24:50.182Z,101152.19
2022-11-27T00:28:53.436Z,101159.00
2022-11-27T00:32:56.421Z,101153.63
2022-11-27T00:36:59.365Z,101157.06
2022-11-27T00:41:08.547Z,101157.88
2022-11-27T00:45:12.260Z,101161.38
2022-11-27T00:49:16.438Z,101173.66
2022-11-27T00:53:19.349Z,101168.34
2022-11-27T00:57:25.060Z,101171.84
2022-11-27T01:01:30.360Z,101170.13
2022-11-27T01:05:33.413Z,101163.22
2022-11-27T01:09:36.363Z,101172.78
2022-11-27T01:13:40.632Z,101169.28
2022-11-27T01:17:43.611Z,101164.94
2022-11-27T01:21:46.787Z,101164.13
2022-11-27T01:25:49.718Z,101155.31
2022-11-27T01:29:54.070Z,101164.94
2022-11-27T01:33:59.335Z,101157.06
2022-11-27T01:38:02.363Z,101157.00
2022-11-27T01:42:06.061Z,101150.94
2022-11-27T01:46:21.568Z,101150.16
2022-11-27T01:50:28.194Z,101145.75
2022-11-27T01:54:34.101Z,101143.16
2022-11-27T01:58:37.539Z,101141.28
2022-11-27T02:02:43.211Z,101145.66
2022-11-27T02:06:46.528Z,101146.50
2022-11-27T02:10:54.575Z,101152.63
2022-11-27T02:15:04.799Z,101148.25
2022-11-27T02:19:22.006Z,101155.19
2022-11-27T02:23:49.756Z,101145.66
2022-11-27T02:28:13.120Z,101146.38
2022-11-27T02:32:23.121Z,101149.81
2022-11-27T02:36:32.486Z,101148.06
2022-11-27T02:40:41.074Z,101147.94
2022-11-27T02:44:48.763Z,101153.88
2022-11-27T02:48:57.963Z,101142.56
2022-11-27T02:53:05.576Z,101150.38
2022-11-27T02:57:11.015Z,101141.63
2022-11-27T03:01:16.042Z,101139.00
2022-11-27T03:05:23.764Z,101146.00
2022-11-27T03:09:33.724Z,101133.75
2022-11-27T03:13:40.601Z,101136.38
2022-11-27T03:17:53.846Z,101141.69
2022-11-27T03:22:01.083Z,101139.00
2022-11-27T03:26:04.031Z,101128.41
2022-11-27T03:30:09.426Z,101122.22
2022-11-27T03:34:13.055Z,101119.59
2022-11-27T03:38:17.723Z,101114.34
2022-11-27T03:42:28.543Z,101113.47
2022-11-27T03:46:41.002Z,101114.34
2022-11-27T03:50:57.547Z,101110.06
2022-11-27T03:55:09.498Z,101108.31
2022-11-27T03:59:20.226Z,101116.25
2022-11-27T04:03:26.194Z,101111.94
2022-11-27T04:07:29.175Z,101107.56
2022-11-27T04:11:33.866Z,101104.88
2022-11-27T04:15:37.926Z,101108.25
2022-11-27T04:19:41.074Z,101106.50
2022-11-27T04:23:44.609Z,101108.25
2022-11-27T04:27:48.929Z,101110.00
2022-11-27T04:31:51.966Z,101107.44
2022-11-27T04:35:55.018Z,101111.81
2022-11-27T04:39:57.973Z,101105.72
2022-11-27T04:44:02.481Z,101101.31
2022-11-27T04:48:06.135Z,101104.69
2022-11-27T04:52:10.798Z,101108.06
2022-11-27T04:56:13.744Z,101107.00
2022-11-27T05:00:19.154Z,101096.50
2022-11-27T05:04:22.477Z,101099.88
2022-11-27T05:08:26.004Z,101110.34
2022-11-27T05:12:28.980Z,101104.19
2022-11-27T05:16:33.401Z,101103.31
2022-11-27T05:20:36.422Z,101103.19
2022-11-27T05:24:39.881Z,101098.78
2022-11-27T05:28:43.003Z,101104.91
2022-11-27T05:32:47.291Z,101104.84
2022-11-27T05:36:50.274Z,101104.84
2022-11-27T05:40:53.163Z,101106.66
2022-11-27T05:44:58.418Z,101097.81
2022-11-27T05:49:03.018Z,101095.16
2022-11-27T05:53:05.982Z,101097.78
2022-11-27T05:57:08.910Z,101096.81
2022-11-27T06:01:12.580Z,101094.13
2022-11-27T06:05:16.974Z,101098.53
2022-11-27T06:09:19.860Z,101100.28
2022-11-27T06:13:22.777Z,101101.97
2022-11-27T06:17:25.663Z,101102.84
2022-11-27T06:21:29.929Z,101119.50
2022-11-27T06:25:32.840Z,101112.47
2022-11-27T06:29:37.638Z,101114.97
2022-11-27T06:33:40.514Z,101121.03
2022-11-27T06:37:44.792Z,101118.41
2022-11-27T06:41:47.997Z,101117.53
2022-11-27T06:45:57.132Z,101118.41
2022-11-27T06:50:00.172Z,101116.75
2022-11-27T06:54:04.569Z,101126.41
2022-11-27T06:58:07.499Z,101120.31
2022-11-27T07:02:14.616Z,101125.75
2022-11-27T07:06:21.886Z,101115.31
2022-11-27T07:10:26.163Z,101122.38
2022-11-27T07:14:29.354Z,101115.50
2022-11-27T07:18:35.524Z,101116.53
2022-11-27T07:22:38.817Z,101117.47
2022-11-27T07:26:43.119Z,101107.13
2022-11-27T07:30:46.074Z,101114.06
2022-11-27T07:34:49.212Z,101115.03
2022-11-27T07:38:52.253Z,101121.81
2022-11-27T07:42:56.592Z,101118.22
2022-11-27T07:46:59.907Z,101119.25
2022-11-27T07:51:02.993Z,101119.25
2022-11-27T07:55:06.678Z,101118.47
2022-11-27T07:59:11.140Z,101119.28
2022-11-27T08:03:14.105Z,101118.47
2022-11-27T08:07:17.262Z,101112.56
2022-11-27T08:11:22.557Z,101116.97
2022-11-27T08:15:26.887Z,101110.19
2022-11-27T08:19:30.038Z,101121.06
2022-11-27T08:23:33.187Z,101118.63
2022-11-27T08:27:36.322Z,101113.38
2022-11-27T08:31:40.644Z,101117.94
2022-11-27T08:35:49.298Z,101111.25
2022-11-27T08:40:13.345Z,101107.91
2022-11-27T08:44:20.389Z,101110.78
2022-11-27T08:48:27.686Z,101102.88
2022-11-27T08:52:30.615Z,101097.59
2022-11-27T08:56:33.646Z,101102.09
2022-11-27T09:00:37.993Z,101109.22
2022-11-27T09:04:42.653Z,101105.81
2022-11-27T09:08:46.609Z,101108.22
2022-11-27T09:12:50.233Z,101114.44
2022-11-27T09:16:54.098Z,101117.19
2022-11-27T09:21:01.703Z,101113.81
2022-11-27T09:25:05.180Z,101114.81
2022-11-27T09:29:08.095Z,101105.31
2022-11-27T09:33:11.064Z,101096.69
2022-11-27T09:37:15.335Z,101098.59
2022-11-27T09:41:40.566Z,101094.38
2022-11-27T09:45:48.663Z,101096.94
2022-11-27T09:49:55.969Z,101091.72
2022-11-27T09:54:06.642Z,101080.25
2022-11-27T09:58:17.276Z,101066.34
2022-11-27T10:02:27.479Z,101063.91
2022-11-27T10:06:37.102Z,101051.91
2022-11-27T10:10:54.987Z,101045.25
2022-11-27T10:15:05.782Z,101042.78
2022-11-27T10:19:29.029Z,101038.41
2022-11-27T10:23:44.381Z,101043.81
2022-11-27T10:28:00.339Z,101017.63
2022-11-27T10:32:22.159Z,101009.88
2022-11-27T10:36:40.059Z,101008.06
2022-11-27T10:40:50.896Z,101000.84
2022-11-27T10:45:01.682Z,101000.84
2022-11-27T10:49:04.611Z,100992.22
2022-11-27T10:53:10.718Z,100989.59
2022-11-27T10:57:27.770Z,100983.50
2022-11-27T11:01:44.307Z,100982.69
2022-11-27T11:06:19.266Z,100973.22
2022-11-27T11:10:27.459Z,100967.94
2022-11-27T11:14:30.405Z,100973.19
2022-11-27T11:18:36.849Z,100964.53
2022-11-27T11:22:47.507Z,100964.66
2022-11-27T11:26:52.557Z,100954.16
2022-11-27T11:30:59.745Z,100954.34
2022-11-27T11:35:09.245Z,100954.44
2022-11-27T11:39:23.664Z,100955.38
2022-11-27T11:43:29.009Z,100943.94
2022-11-27T11:47:32.530Z,100938.69
2022-11-27T11:52:02.745Z,100931.84
2022-11-27T11:56:21.777Z,100925.88
2022-11-27T12:00:39.999Z,100928.59
2022-11-27T12:05:12.598Z,100915.63
2022-11-27T12:09:36.979Z,100919.22
2022-11-27T12:14:11.313Z,100909.63
2022-11-27T12:18:24.114Z,100907.16
2022-11-27T12:22:44.756Z,100907.19
2022-11-27T12:27:04.899Z,100901.09
2022-11-27T12:31:15.715Z,100897.53
2022-11-27T12:35:32.337Z,100894.25
2022-11-27T12:39:58.375Z,100893.50
2022-11-27T12:44:02.838Z,100890.16
2022-11-27T12:48:13.318Z,100889.38
2022-11-27T12:52:19.876Z,100884.28
2022-11-27T12:56:27.475Z,100886.97
2022-11-27T13:00:36.106Z,100877.38
2022-11-27T13:04:45.285Z,100880.00
2022-11-27T13:08:55.460Z,100875.72
2022-11-27T13:13:05.981Z,100867.00
2022-11-27T13:17:16.269Z,100875.78
2022-11-27T13:21:23.614Z,100874.09
2022-11-27T13:25:28.040Z,100867.03
2022-11-27T13:29:35.013Z,100857.44
2022-11-27T13:33:43.285Z,100853.94
2022-11-27T13:37:50.254Z,100852.97
2022-11-27T13:42:03.445Z,100858.22
2022-11-27T13:46:09.372Z,100863.50
2022-11-27T13:50:17.111Z,100849.59
2022-11-27T13:54:26.029Z,100848.03
2022-11-27T13:58:34.565Z,100842.72
2022-11-27T14:02:42.988Z,100833.88
2022-11-27T14:06:55.348Z,100834.75
2022-11-27T14:11:00.717Z,100825.06
2022-11-27T14:15:10.225Z,100826.81
2022-11-27T14:19:33.492Z,100827.66
2022-11-27T14:23:50.966Z,100835.53
2022-11-27T14:28:05.144Z,100839.88
2022-11-27T14:32:13.201Z,100819.72
2022-11-27T14:36:23.687Z,100823.16
2022-11-27T14:40:29.001Z,100823.16
2022-11-27T14:44:32.958Z,100821.53
2022-11-27T14:48:44.652Z,100824.19
2022-11-27T14:52:54.241Z,100817.16
2022-11-27T14:56:59.324Z,100815.38
2022-11-27T15:01:04.630Z,100803.16
2022-11-27T15:05:19.504Z,100804.78
2022-11-27T15:09:31.875Z,100813.44
2022-11-27T15:13:38.876Z,100805.47
2022-11-27T15:17:46.398Z,100800.13
2022-11-27T15:21:51.048Z,100797.44
2022-11-27T15:26:11.011Z,100815.09
2022-11-27T15:30:20.252Z,100802.00
2022-11-27T15:34:24.684Z,100796.75
2022-11-27T15:38:27.786Z,100799.38
2022-11-27T15:42:30.703Z,100793.28
2022-11-27T15:46:36.509Z,100787.16
2022-11-27T15:50:39.467Z,100787.09
2022-11-27T15:54:42.642Z,100781.78
2022-11-27T15:58:45.959Z,100790.44
2022-11-27T16:02:50.369Z,100776.34
2022-11-27T16:06:53.542Z,100778.88
2022-11-27T16:11:01.882Z,100775.22
2022-11-27T16:15:05.136Z,100776.75
2022-11-27T16:19:12.147Z,100767.81
2022-11-27T16:23:15.420Z,100759.75
2022-11-27T16:27:18.340Z,100756.94
2022-11-27T16:31:21.902Z,100758.47
2022-11-27T16:35:26.853Z,100757.50
2022-11-27T16:39:29.892Z,100752.97
2022-11-27T16:43:36.238Z,100753.75
2022-11-27T16:47:39.839Z,100742.22
2022-11-27T16:51:44.411Z,100738.50
2022-11-27T16:55:47.745Z,100726.91
2022-11-27T16:59:51.443Z,100733.66
2022-11-27T17:03:56.603Z,100728.25
2022-11-27T17:08:00.942Z,100729.88
2022-11-27T17:12:04.114Z,100732.25
2022-11-27T17:16:09.678Z,100740.00
2022-11-27T17:20:12.712Z,100733.72
2022-11-27T17:24:18.237Z,100743.16
2022-11-27T17:28:21.491Z,100741.13
2022-11-27T17:32:25.235Z,100728.66
2022-11-27T17:36:36.605Z,100720.56
2022-11-27T17:40:41.815Z,100722.25
2022-11-27T17:44:44.721Z,100715.13
2022-11-27T17:48:47.793Z,100710.59
2022-11-27T17:52:53.485Z,100709.63
2022-11-27T17:56:57.689Z,100711.22
2022-11-27T18:01:02.347Z,100704.00
2022-11-27T18:05:07.034Z,100692.22
2022-11-27T18:09:10.035Z,100700.69
2022-11-27T18:13:14.706Z,100704.56
2022-11-27T18:17:18.800Z,100705.81
2022-11-27T18:21:22.544Z,100698.31
2022-11-27T18:25:25.503Z,100704.47
2022-11-27T18:29:30.159Z,100704.84
2022-11-27T18:33:33.120Z,100699.94
2022-11-27T18:37:38.462Z,100701.44
2022-11-27T18:41:41.921Z,100695.16
2022-11-27T18:45:46.283Z,100698.34
2022-11-27T18:49:49.385Z,100698.75
2022-11-27T18:53:53.027Z,100712.38
2022-11-27T18:57:56.368Z,100706.81
2022-11-27T19:02:01.016Z,100710.75
2022-11-27T19:06:05.615Z,100728.09
2022-11-27T19:10:09.724Z,100722.75
2022-11-27T19:14:13.606Z,100720.81
2022-11-27T19:18:18.176Z,100732.84
2022-11-27T19:22:21.440Z,100723.19
2022-11-27T19:26:27.344Z,100721.28
2022-11-27T19:30:34.039Z,100719.72
2022-11-27T19:34:38.730Z,100715.53
2022-11-27T19:38:44.539Z,100720.88
2022-11-27T19:42:47.730Z,100709.53
2022-11-27T19:46:51.657Z,100706.00
2022-11-27T19:51:02.495Z,100702.31
2022-11-27T19:55:06.458Z,100702.31
2022-11-27T19:59:10.201Z,100686.44
2022-11-27T20:03:15.413Z,100677.81
2022-11-27T20:07:20.405Z,100690.88
2022-11-27T20:11:29.771Z,100674.41
2022-11-27T20:15:36.123Z,100673.59
2022-11-27T20:19:40.094Z,100676.19
2022-11-27T20:23:45.931Z,100670.13
2022-11-27T20:27:49.035Z,100670.97
2022-11-27T20:31:52.092Z,100674.69
2022-11-27T20:35:55.338Z,100664.41
2022-11-27T20:40:00.111Z,100656.84
2022-11-27T20:44:05.725Z,100661.44
2022-11-27T20:48:09.622Z,100651.88
2022-11-27T20:52:14.641Z,100644.13
2022-11-27T20:56:20.733Z,100634.44
2022-11-27T21:00:24.817Z,100633.41
2022-11-27T21:04:28.050Z,100636.75
2022-11-27T21:08:31.742Z,100632.16
2022-11-27T21:12:36.970Z,100620.63
2022-11-27T21:16:42.731Z,100620.41
2022-11-27T21:20:47.574Z,100616.75
2022-11-27T21:24:51.622Z,100617.56
2022-11-27T21:28:56.265Z,100614.09
2022-11-27T21:33:00.098Z,100604.19
2022-11-27T21:37:04.645Z,100604.06
2022-11-27T21:41:08.181Z,100594.44
2022-11-27T21:45:12.911Z,100587.47
2022-11-27T21:49:18.266Z,100583.19
2022-11-27T21:53:21.861Z,100579.72
2022-11-27T21:57:25.041Z,100571.00
2022-11-27T22:01:30.028Z,100565.13
2022-11-27T22:05:33.494Z,100564.19
2022-11-27T22:09:36.535Z,100558.13
2022-11-27T22:13:41.148Z,100554.63
2022-11-27T22:17:46.246Z,100552.97
2022-11-27T22:21:49.694Z,100550.50
2022-11-27T22:25:53.017Z,100552.31
2022-11-27T22:29:56.628Z,100546.16
2022-11-27T22:34:01.706Z,100539.94
2022-11-27T22:38:05.016Z,100532.16
2022-11-27T22:42:08.483Z,100528.50
2022-11-27T22:46:14.659Z,100525.19
2022-11-27T22:50:19.515Z,100523.53
2022-11-27T22:54:22.948Z,100521.72
2022-11-27T22:58:27.764Z,100519.19
2022-11-27T23:02:30.695Z,100522.66
2022-11-27T23:06:36.035Z,100525.31
2022-11-27T23:10:40.191Z,100520.09
2022-11-27T23:14:43.412Z,100518.31
2022-11-27T23:18:46.489Z,100504.44
2022-11-27T23:22:51.286Z,100510.66
2022-11-27T23:26:54.200Z,100509.81
2022-11-27T23:31:15.574Z,100516.75
2022-11-27T23:35:20.075Z,100506.38
2022-11-27T23:39:24.628Z,100504.63
2022-11-27T23:43:27.649Z,100491.53
2022-11-27T23:47:31.437Z,100482.63
2022-11-27T23:51:34.518Z,100476.47
2022-11-27T23:55:38.761Z,100473.75
2022-11-27T23:59:41.751Z,100466.78
